Time,TemperatureF,DewpointF,PressureIn,WindDirection,WindDirectionDegrees,WindSpeedMPH,WindSpeedGustMPH,Humidity,HourlyPrecipIn,Conditions,Clouds,dailyrainin,SoftwareType,DateUTC
2013-12-27 00:00:00,68.5,61.0,30.00,SE,135,3.0,6.0,77,0.00,,,0.00,Weather View 32 v70,2013-12-27 10:00:00,
2013-12-27 00:05:00,68.5,61.0,30.00,SE,126,4.0,6.0,77,0.00,,,0.00,Weather View 32 v70,2013-12-27 10:05:00,
2013-12-27 00:10:00,68.4,60.5,30.00,SE,130,3.0,6.0,76,0.00,,,0.00,Weather View 32 v70,2013-12-27 10:10:00,
2013-12-27 00:15:00,68.2,60.3,30.00,ESE,123,3.0,6.0,76,0.00,,,0.00,Weather View 32 v70,2013-12-27 10:15:00,
2013-12-27 00:20:00,68.0,60.1,30.00,ESE,115,3.0,6.0,76,0.00,,,0.00,Weather View 32 v70,2013-12-27 10:20:00,
2013-12-27 00:25:00,68.0,60.1,30.00,SE,124,5.0,6.0,76,0.00,,,0.00,Weather View 32 v70,2013-12-27 10:25:00,
2013-12-27 00:30:00,68.0,60.1,30.00,ESE,118,3.0,6.0,76,0.00,,,0.00,Weather View 32 v70,2013-12-27 10:30:00,
2013-12-27 00:35:00,68.0,60.5,30.00,SE,139,3.0,6.0,77,0.00,,,0.00,Weather View 32 v70,2013-12-27 10:35:00,
2013-12-27 00:40:00,68.2,60.7,30.00,ESE,115,3.0,6.0,77,0.00,,,0.00,Weather View 32 v70,2013-12-27 10:40:00,
2013-12-27 00:45:00,68.2,60.7,30.00,ESE,119,3.0,6.0,77,0.00,,,0.00,Weather View 32 v70,2013-12-27 10:45:00,
2013-12-27 00:50:00,68.2,60.7,30.00,ESE,119,4.0,6.0,77,0.00,,,0.00,Weather View 32 v70,2013-12-27 10:50:00,
2013-12-27 00:55:00,68.2,61.0,30.00,SE,142,4.0,6.0,78,0.00,,,0.00,Weather View 32 v70,2013-12-27 10:55:00,
2013-12-27 01:00:00,68.4,61.2,30.00,ESE,122,3.0,5.0,78,0.00,,,0.00,Weather View 32 v70,2013-12-27 11:00:00,
2013-12-27 01:05:00,68.5,61.7,30.00,SE,127,3.0,5.0,79,0.00,,,0.00,Weather View 32 v70,2013-12-27 11:05:00,
2013-12-27 01:10:00,68.7,61.9,30.00,SE,129,4.0,5.0,79,0.00,,,0.00,Weather View 32 v70,2013-12-27 11:10:00,
2013-12-27 01:17:00,68.7,61.9,30.00,SE,124,6.0,6.0,79,0.00,,,0.00,Weather View 32 v70,2013-12-27 11:17:00,
2013-12-27 01:22:00,68.7,61.9,30.00,ENE,68,4.0,7.0,79,0.00,,,0.00,Weather View 32 v70,2013-12-27 11:22:00,
2013-12-27 01:27:00,68.9,62.1,29.98,SE,125,4.0,7.0,79,0.00,,,0.00,Weather View 32 v70,2013-12-27 11:27:00,
2013-12-27 01:32:00,68.7,61.9,29.98,NE,50,3.0,7.0,79,0.00,,,0.00,Weather View 32 v70,2013-12-27 11:32:00,
2013-12-27 01:36:00,68.7,61.9,29.98,SE,126,4.0,7.0,79,0.00,,,0.00,Weather View 32 v70,2013-12-27 11:36:00,
2013-12-27 01:41:00,68.9,62.5,29.98,SE,124,4.0,7.0,80,0.00,,,0.00,Weather View 32 v70,2013-12-27 11:41:00,
2013-12-27 01:46:00,68.9,62.5,29.98,SE,130,4.0,7.0,80,0.00,,,0.00,Weather View 32 v70,2013-12-27 11:46:00,
2013-12-27 01:51:00,68.9,62.5,29.98,SE,138,3.0,7.0,80,0.00,,,0.00,Weather View 32 v70,2013-12-27 11:51:00,
2013-12-27 01:56:00,68.9,62.5,29.98,SSE,165,3.0,7.0,80,0.00,,,0.00,Weather View 32 v70,2013-12-27 11:56:00,
2013-12-27 02:01:00,68.7,61.9,29.98,SE,125,4.0,7.0,79,0.00,,,0.00,Weather View 32 v70,2013-12-27 12:01:00,
2013-12-27 02:06:00,68.7,62.3,29.98,SE,134,4.0,7.0,80,0.00,,,0.00,Weather View 32 v70,2013-12-27 12:06:00,
2013-12-27 02:11:00,68.7,62.3,29.98,SE,139,4.0,7.0,80,0.00,,,0.00,Weather View 32 v70,2013-12-27 12:11:00,
2013-12-27 02:16:00,68.7,62.3,29.98,SE,132,5.0,7.0,80,0.00,,,0.00,Weather View 32 v70,2013-12-27 12:16:00,
2013-12-27 02:21:00,68.7,62.3,29.98,SE,124,3.0,6.0,80,0.00,,,0.00,Weather View 32 v70,2013-12-27 12:21:00,
2013-12-27 02:26:00,68.7,62.3,29.98,ESE,122,3.0,6.0,80,0.00,,,0.00,Weather View 32 v70,2013-12-27 12:26:00,
2013-12-27 02:31:00,68.5,62.1,29.98,ESE,116,4.0,6.0,80,0.00,,,0.00,Weather View 32 v70,2013-12-27 12:31:00,
2013-12-27 02:36:00,68.5,62.1,29.98,ESE,103,4.0,6.0,80,0.00,,,0.00,Weather View 32 v70,2013-12-27 12:36:00,
2013-12-27 02:41:00,68.4,61.9,29.98,ESE,110,3.0,6.0,80,0.00,,,0.00,Weather View 32 v70,2013-12-27 12:41:00,
2013-12-27 02:46:00,68.4,61.9,29.98,ESE,121,5.0,6.0,80,0.00,,,0.00,Weather View 32 v70,2013-12-27 12:46:00,
2013-12-27 02:51:00,68.4,61.9,29.98,ESE,108,4.0,6.0,80,0.00,,,0.00,Weather View 32 v70,2013-12-27 12:51:00,
2013-12-27 02:56:00,68.4,62.3,29.98,SE,140,3.0,6.0,81,0.00,,,0.00,Weather View 32 v70,2013-12-27 12:56:00,
2013-12-27 03:01:00,68.5,62.5,29.98,ENE,58,3.0,6.0,81,0.00,,,0.00,Weather View 32 v70,2013-12-27 13:01:00,
2013-12-27 03:06:00,68.7,62.6,29.98,ENE,59,5.0,6.0,81,0.00,,,0.00,Weather View 32 v70,2013-12-27 13:06:00,
2013-12-27 03:11:00,68.9,63.2,29.98,ENE,64,3.0,8.0,82,0.00,,,0.00,Weather View 32 v70,2013-12-27 13:11:00,
2013-12-27 03:16:00,69.3,63.5,29.98,North,2,4.0,8.0,82,0.00,,,0.00,Weather View 32 v70,2013-12-27 13:16:00,
2013-12-27 03:21:00,69.3,63.5,29.98,ESE,109,3.0,10.0,82,0.00,,,0.00,Weather View 32 v70,2013-12-27 13:21:00,
2013-12-27 03:26:00,69.3,63.5,29.98,ESE,120,4.0,10.0,82,0.00,,,0.00,Weather View 32 v70,2013-12-27 13:26:00,
2013-12-27 03:31:00,69.3,63.2,29.98,ESE,120,4.0,10.0,81,0.00,,,0.00,Weather View 32 v70,2013-12-27 13:31:00,
2013-12-27 03:36:00,69.3,63.2,29.98,ESE,120,3.0,10.0,81,0.00,,,0.00,Weather View 32 v70,2013-12-27 13:36:00,
2013-12-27 03:41:00,69.3,63.2,29.95,SE,126,2.0,10.0,81,0.00,,,0.00,Weather View 32 v70,2013-12-27 13:41:00,
2013-12-27 03:46:00,69.1,63.0,29.95,ESE,108,4.0,10.0,81,0.00,,,0.00,Weather View 32 v70,2013-12-27 13:46:00,
2013-12-27 03:51:00,69.1,62.6,29.95,SE,131,6.0,10.0,80,0.00,,,0.00,Weather View 32 v70,2013-12-27 13:51:00,
2013-12-27 03:56:00,68.9,62.5,29.98,SE,136,5.0,10.0,80,0.08,,,0.08,Weather View 32 v70,2013-12-27 13:56:00,
2013-12-27 04:01:00,68.9,62.5,29.98,East,95,5.0,10.0,80,0.08,,,0.08,Weather View 32 v70,2013-12-27 14:01:00,
2013-12-27 04:06:00,68.9,62.8,29.98,ESE,113,4.0,10.0,81,0.08,,,0.08,Weather View 32 v70,2013-12-27 14:06:00,
2013-12-27 04:11:00,68.9,63.5,29.95,ESE,110,6.0,10.0,83,0.08,,,0.08,Weather View 32 v70,2013-12-27 14:11:00,
2013-12-27 04:16:00,68.9,63.8,29.95,ESE,110,4.0,10.0,84,0.08,,,0.08,Weather View 32 v70,2013-12-27 14:16:00,
2013-12-27 04:21:00,68.9,64.5,29.95,SSE,157,5.0,8.0,86,0.08,,,0.08,Weather View 32 v70,2013-12-27 14:21:00,
2013-12-27 04:26:00,68.7,64.3,29.95,SE,133,8.0,8.0,86,0.08,,,0.08,Weather View 32 v70,2013-12-27 14:26:00,
2013-12-27 04:31:00,68.4,63.7,29.95,SE,134,4.0,8.0,85,0.08,,,0.08,Weather View 32 v70,2013-12-27 14:31:00,
2013-12-27 04:36:00,68.2,62.5,29.95,SSE,162,6.0,10.0,82,0.08,,,0.08,Weather View 32 v70,2013-12-27 14:36:00,
2013-12-27 04:41:00,68.0,61.9,29.95,ESE,108,6.0,10.0,81,0.08,,,0.08,Weather View 32 v70,2013-12-27 14:41:00,
2013-12-27 04:46:00,68.0,61.9,29.95,SE,133,5.0,10.0,81,0.08,,,0.08,Weather View 32 v70,2013-12-27 14:46:00,
2013-12-27 04:51:00,67.8,61.8,29.95,SSE,157,8.0,10.0,81,0.08,,,0.08,Weather View 32 v70,2013-12-27 14:51:00,
2013-12-27 04:56:00,67.8,61.8,29.95,SE,132,6.0,10.0,81,0.00,,,0.08,Weather View 32 v70,2013-12-27 14:56:00,
2013-12-27 05:01:00,67.8,61.8,29.95,East,99,6.0,10.0,81,0.00,,,0.08,Weather View 32 v70,2013-12-27 15:01:00,
2013-12-27 05:06:00,67.6,61.6,29.95,SE,124,5.0,10.0,81,0.00,,,0.08,Weather View 32 v70,2013-12-27 15:06:00,
2013-12-27 05:11:00,67.6,61.6,29.95,SE,135,4.0,10.0,81,0.00,,,0.08,Weather View 32 v70,2013-12-27 15:11:00,
2013-12-27 05:16:00,67.5,61.4,29.95,SE,136,4.0,10.0,81,0.00,,,0.08,Weather View 32 v70,2013-12-27 15:16:00,
2013-12-27 05:21:00,67.5,61.4,29.95,SSE,150,5.0,10.0,81,0.00,,,0.08,Weather View 32 v70,2013-12-27 15:21:00,
2013-12-27 05:26:00,67.5,61.4,29.95,SE,136,5.0,10.0,81,0.00,,,0.08,Weather View 32 v70,2013-12-27 15:26:00,
2013-12-27 05:31:00,67.5,61.4,29.95,SSE,149,6.0,10.0,81,0.00,,,0.08,Weather View 32 v70,2013-12-27 15:31:00,
2013-12-27 05:36:00,67.5,61.4,29.95,SSE,162,4.0,10.0,81,0.00,,,0.08,Weather View 32 v70,2013-12-27 15:36:00,
2013-12-27 05:41:00,67.5,61.4,29.95,East,99,5.0,10.0,81,0.00,,,0.08,Weather View 32 v70,2013-12-27 15:41:00,
2013-12-27 05:46:00,67.6,61.6,29.95,NE,54,5.0,10.0,81,0.00,,,0.08,Weather View 32 v70,2013-12-27 15:46:00,
2013-12-27 05:51:00,68.0,61.9,29.95,SE,130,8.0,8.0,81,0.00,,,0.08,Weather View 32 v70,2013-12-27 15:51:00,
2013-12-27 05:56:00,68.2,62.5,29.95,East,81,5.0,8.0,82,0.00,,,0.08,Weather View 32 v70,2013-12-27 15:56:00,
2013-12-27 06:01:00,68.4,63.0,29.95,SE,133,6.0,13.0,83,0.00,,,0.08,Weather View 32 v70,2013-12-27 16:01:00,
2013-12-27 06:06:00,68.5,63.5,29.95,ESE,123,6.0,13.0,84,0.00,,,0.08,Weather View 32 v70,2013-12-27 16:06:00,
2013-12-27 06:11:00,68.5,63.5,29.95,SE,140,7.0,13.0,84,0.00,,,0.08,Weather View 32 v70,2013-12-27 16:11:00,
2013-12-27 06:16:00,68.5,63.5,29.95,ESE,115,6.0,13.0,84,0.00,,,0.08,Weather View 32 v70,2013-12-27 16:16:00,
2013-12-27 06:22:00,68.5,63.2,29.95,SSE,159,4.0,13.0,83,0.00,,,0.08,Weather View 32 v70,2013-12-27 16:22:00,
2013-12-27 06:27:00,68.2,62.5,29.98,SE,130,6.0,13.0,82,0.00,,,0.08,Weather View 32 v70,2013-12-27 16:27:00,
2013-12-27 06:35:00,68.0,62.6,29.98,ESE,122,4.0,13.0,83,0.00,,,0.08,Weather View 32 v70,2013-12-27 16:35:00,
2013-12-27 06:40:00,68.0,62.6,29.98,SE,136,6.0,13.0,83,0.00,,,0.08,Weather View 32 v70,2013-12-27 16:40:00,
2013-12-27 06:45:00,68.0,62.6,29.98,SE,142,4.0,13.0,83,0.00,,,0.08,Weather View 32 v70,2013-12-27 16:45:00,
2013-12-27 06:50:00,68.0,62.3,29.98,SE,126,4.0,13.0,82,0.00,,,0.08,Weather View 32 v70,2013-12-27 16:50:00,
2013-12-27 06:55:00,68.0,62.3,29.98,SE,140,5.0,13.0,82,0.00,,,0.08,Weather View 32 v70,2013-12-27 16:55:00,
2013-12-27 07:00:00,67.8,62.1,29.98,SE,131,3.0,13.0,82,0.00,,,0.08,Weather View 32 v70,2013-12-27 17:00:00,
2013-12-27 07:05:00,67.8,62.1,29.98,ESE,107,4.0,9.0,82,0.00,,,0.08,Weather View 32 v70,2013-12-27 17:05:00,
2013-12-27 07:10:00,67.6,61.9,29.98,SE,131,3.0,8.0,82,0.00,,,0.08,Weather View 32 v70,2013-12-27 17:10:00,
2013-12-27 07:15:00,67.6,61.9,29.98,SE,135,3.0,8.0,82,0.00,,,0.08,Weather View 32 v70,2013-12-27 17:15:00,
2013-12-27 07:20:00,67.8,62.4,29.98,ESE,119,4.0,8.0,83,0.00,,,0.08,Weather View 32 v70,2013-12-27 17:20:00,
2013-12-27 07:25:00,68.0,62.6,29.98,SE,131,3.0,8.0,83,0.00,,,0.08,Weather View 32 v70,2013-12-27 17:25:00,
2013-12-27 07:30:00,68.0,62.6,30.00,SE,131,4.0,8.0,83,0.00,,,0.08,Weather View 32 v70,2013-12-27 17:30:00,
2013-12-27 07:35:00,68.0,62.6,30.00,ESE,117,4.0,8.0,83,0.00,,,0.08,Weather View 32 v70,2013-12-27 17:35:00,
2013-12-27 07:40:00,68.0,63.0,30.00,SE,134,4.0,8.0,84,0.00,,,0.08,Weather View 32 v70,2013-12-27 17:40:00,
2013-12-27 07:45:00,68.0,63.0,29.98,ESE,120,3.0,8.0,84,0.00,,,0.08,Weather View 32 v70,2013-12-27 17:45:00,
2013-12-27 07:50:00,68.2,63.1,29.98,SE,125,4.0,6.0,84,0.00,,,0.08,Weather View 32 v70,2013-12-27 17:50:00,
2013-12-27 07:55:00,68.2,63.5,29.98,ESE,108,3.0,7.0,85,0.00,,,0.08,Weather View 32 v70,2013-12-27 17:55:00,
2013-12-27 08:00:00,68.4,63.7,30.00,SE,136,2.0,7.0,85,0.00,,,0.08,Weather View 32 v70,2013-12-27 18:00:00,
2013-12-27 08:05:00,68.4,63.7,30.00,ESE,123,3.0,7.0,85,0.00,,,0.08,Weather View 32 v70,2013-12-27 18:05:00,
2013-12-27 08:10:00,68.2,63.5,30.00,SE,128,4.0,7.0,85,0.00,,,0.08,Weather View 32 v70,2013-12-27 18:10:00,
2013-12-27 08:15:00,68.2,63.5,30.00,ESE,112,3.0,7.0,85,0.00,,,0.08,Weather View 32 v70,2013-12-27 18:15:00,
2013-12-27 08:20:00,68.4,63.7,30.00,ESE,110,4.0,7.0,85,0.00,,,0.08,Weather View 32 v70,2013-12-27 18:20:00,
2013-12-27 08:25:00,68.7,64.3,30.00,SE,129,4.0,7.0,86,0.00,,,0.08,Weather View 32 v70,2013-12-27 18:25:00,
2013-12-27 08:30:00,68.9,64.5,30.00,SE,135,4.0,7.0,86,0.00,,,0.08,Weather View 32 v70,2013-12-27 18:30:00,
2013-12-27 08:35:00,69.3,65.2,30.00,SE,128,4.0,7.0,87,0.00,,,0.08,Weather View 32 v70,2013-12-27 18:35:00,
2013-12-27 08:40:00,69.6,65.6,30.00,ESE,103,4.0,7.0,87,0.00,,,0.08,Weather View 32 v70,2013-12-27 18:40:00,
2013-12-27 08:45:00,70.2,66.1,30.00,ESE,106,5.0,7.0,87,0.00,,,0.08,Weather View 32 v70,2013-12-27 18:45:00,
2013-12-27 08:50:00,70.9,66.8,30.00,South,170,3.0,7.0,87,0.00,,,0.08,Weather View 32 v70,2013-12-27 18:50:00,
2013-12-27 08:55:00,71.6,67.2,30.00,East,99,3.0,7.0,86,0.00,,,0.08,Weather View 32 v70,2013-12-27 18:55:00,
2013-12-27 09:00:00,72.1,67.0,30.03,SE,138,5.0,9.0,84,0.00,,,0.08,Weather View 32 v70,2013-12-27 19:00:00,
2013-12-27 09:05:00,72.9,66.3,30.03,SE,127,0.0,9.0,80,0.00,,,0.08,Weather View 32 v70,2013-12-27 19:05:00,
2013-12-27 09:10:00,72.9,64.4,30.03,East,101,4.0,9.0,75,0.00,,,0.08,Weather View 32 v70,2013-12-27 19:10:00,
2013-12-27 09:15:00,72.7,61.5,30.03,ESE,111,4.0,9.0,68,0.00,,,0.08,Weather View 32 v70,2013-12-27 19:15:00,
2013-12-27 09:20:00,72.3,60.3,30.03,SE,131,3.0,9.0,66,0.00,,,0.08,Weather View 32 v70,2013-12-27 19:20:00,
2013-12-27 09:25:00,72.5,60.9,30.03,SE,135,0.0,9.0,67,0.00,,,0.08,Weather View 32 v70,2013-12-27 19:25:00,
2013-12-27 09:30:00,73.0,62.2,30.03,ENE,74,4.0,9.0,69,0.00,,,0.08,Weather View 32 v70,2013-12-27 19:30:00,
2013-12-27 09:35:00,73.6,61.0,30.03,ESE,118,6.0,9.0,65,0.00,,,0.08,Weather View 32 v70,2013-12-27 19:35:00,
2013-12-27 09:40:00,74.3,59.5,30.03,SSE,151,4.0,9.0,60,0.00,,,0.08,Weather View 32 v70,2013-12-27 19:40:00,
2013-12-27 09:45:00,74.8,57.5,30.03,ESE,114,4.0,10.0,55,0.00,,,0.08,Weather View 32 v70,2013-12-27 19:45:00,
2013-12-27 09:50:00,75.0,56.1,30.03,ESE,116,5.0,10.0,52,0.00,,,0.08,Weather View 32 v70,2013-12-27 19:50:00,
2013-12-27 09:55:00,74.8,54.9,30.03,North,7,5.0,10.0,50,0.00,,,0.08,Weather View 32 v70,2013-12-27 19:55:00,
2013-12-27 10:00:00,74.7,53.6,30.00,ENE,58,6.0,10.0,48,0.00,,,0.08,Weather View 32 v70,2013-12-27 20:00:00,
2013-12-27 10:05:00,73.9,50.6,30.00,East,89,8.0,10.0,44,0.00,,,0.08,Weather View 32 v70,2013-12-27 20:05:00,
2013-12-27 10:10:00,73.6,50.3,30.00,East,92,9.0,10.0,44,0.00,,,0.08,Weather View 32 v70,2013-12-27 20:10:00,
2013-12-27 10:15:00,73.8,48.5,30.03,East,84,8.0,11.0,41,0.00,,,0.08,Weather View 32 v70,2013-12-27 20:15:00,
2013-12-27 10:20:00,73.8,48.5,30.03,NE,43,8.0,13.0,41,0.00,,,0.08,Weather View 32 v70,2013-12-27 20:20:00,
2013-12-27 10:25:00,73.8,46.5,30.03,East,81,11.0,13.0,38,0.00,,,0.08,Weather View 32 v70,2013-12-27 20:25:00,
2013-12-27 10:30:00,74.1,46.8,30.03,ENE,60,8.0,13.0,38,0.00,,,0.08,Weather View 32 v70,2013-12-27 20:30:00,
2013-12-27 10:35:00,74.3,49.0,30.03,North,3,5.0,13.0,41,0.00,,,0.08,Weather View 32 v70,2013-12-27 20:35:00,
2013-12-27 10:40:00,74.3,47.0,30.03,North,9,12.0,13.0,38,0.00,,,0.08,Weather View 32 v70,2013-12-27 20:40:00,
2013-12-27 10:45:00,74.7,47.3,30.00,North,7,6.0,13.0,38,0.00,,,0.08,Weather View 32 v70,2013-12-27 20:45:00,
2013-12-27 10:50:00,75.6,47.4,30.00,North,4,13.0,13.0,37,0.00,,,0.08,Weather View 32 v70,2013-12-27 20:50:00,
2013-12-27 10:55:00,75.7,46.1,30.00,North,7,12.0,13.0,35,0.00,,,0.08,Weather View 32 v70,2013-12-27 20:55:00,
2013-12-27 11:00:00,75.6,45.9,30.00,North,2,4.0,15.0,35,0.00,,,0.08,Weather View 32 v70,2013-12-27 21:00:00,
2013-12-27 11:05:00,76.5,48.2,30.00,East,89,4.0,15.0,37,0.00,,,0.08,Weather View 32 v70,2013-12-27 21:05:00,
2013-12-27 11:10:00,77.4,45.9,30.00,NE,40,4.0,15.0,33,0.00,,,0.08,Weather View 32 v70,2013-12-27 21:10:00,
2013-12-27 11:15:00,77.9,44.7,30.00,NNE,25,10.0,15.0,31,0.00,,,0.08,Weather View 32 v70,2013-12-27 21:15:00,
2013-12-27 11:20:00,78.3,45.1,30.00,North,8,4.0,15.0,31,0.00,,,0.08,Weather View 32 v70,2013-12-27 21:20:00,
2013-12-27 11:25:00,78.8,44.7,30.00,East,88,8.0,15.0,30,0.00,,,0.08,Weather View 32 v70,2013-12-27 21:25:00,
2013-12-27 11:30:00,79.3,45.1,30.00,NE,35,6.0,15.0,30,0.00,,,0.08,Weather View 32 v70,2013-12-27 21:30:00,
2013-12-27 11:35:00,79.5,45.3,30.00,North,11,3.0,15.0,30,0.00,,,0.08,Weather View 32 v70,2013-12-27 21:35:00,
2013-12-27 11:40:00,79.5,45.3,30.00,East,84,8.0,15.0,30,0.00,,,0.08,Weather View 32 v70,2013-12-27 21:40:00,
2013-12-27 11:45:00,79.5,44.4,30.00,North,2,10.0,15.0,29,0.00,,,0.08,Weather View 32 v70,2013-12-27 21:45:00,
2013-12-27 11:50:00,79.3,43.3,30.00,ESE,111,7.0,15.0,28,0.00,,,0.08,Weather View 32 v70,2013-12-27 21:50:00,
2013-12-27 11:55:00,79.2,43.2,30.00,NE,48,6.0,16.0,28,0.00,,,0.08,Weather View 32 v70,2013-12-27 21:55:00,
2013-12-27 12:00:00,78.4,41.6,29.98,North,4,4.0,16.0,27,0.00,,,0.08,Weather View 32 v70,2013-12-27 22:00:00,
2013-12-27 12:05:00,78.3,44.2,29.98,ENE,68,4.0,16.0,30,0.00,,,0.08,Weather View 32 v70,2013-12-27 22:05:00,
2013-12-27 12:10:00,78.6,44.5,29.98,NNE,17,9.0,16.0,30,0.00,,,0.08,Weather View 32 v70,2013-12-27 22:10:00,
2013-12-27 12:15:00,78.4,41.6,29.98,North,5,6.0,16.0,27,0.00,,,0.08,Weather View 32 v70,2013-12-27 22:15:00,
2013-12-27 12:20:00,78.6,43.6,29.98,NE,51,5.0,16.0,29,0.00,,,0.08,Weather View 32 v70,2013-12-27 22:20:00,
2013-12-27 12:25:00,79.0,43.9,29.98,NNE,13,6.0,16.0,29,0.00,,,0.08,Weather View 32 v70,2013-12-27 22:25:00,
2013-12-27 12:30:00,79.3,42.4,29.98,North,5,5.0,16.0,27,0.00,,,0.08,Weather View 32 v70,2013-12-27 22:30:00,
2013-12-27 12:35:00,78.8,39.9,29.98,NNE,21,5.0,16.0,25,0.00,,,0.08,Weather View 32 v70,2013-12-27 22:35:00,
2013-12-27 12:40:00,78.1,41.3,29.98,NNE,20,8.0,16.0,27,0.00,,,0.08,Weather View 32 v70,2013-12-27 22:40:00,
2013-12-27 12:45:00,77.7,41.0,29.98,NNE,30,6.0,16.0,27,0.00,,,0.08,Weather View 32 v70,2013-12-27 22:45:00,
2013-12-27 12:50:00,77.5,40.8,29.98,North,3,5.0,16.0,27,0.00,,,0.08,Weather View 32 v70,2013-12-27 22:50:00,
2013-12-27 12:55:00,77.2,38.5,29.98,North,6,11.0,15.0,25,0.00,,,0.08,Weather View 32 v70,2013-12-27 22:55:00,
2013-12-27 13:00:00,77.0,39.4,29.98,NE,45,6.0,15.0,26,0.00,,,0.08,Weather View 32 v70,2013-12-27 23:00:00,
2013-12-27 13:05:00,76.8,39.2,29.98,ENE,59,6.0,15.0,26,0.00,,,0.08,Weather View 32 v70,2013-12-27 23:05:00,
2013-12-27 13:10:00,76.6,39.1,29.98,ENE,59,4.0,15.0,26,0.00,,,0.08,Weather View 32 v70,2013-12-27 23:10:00,
2013-12-27 13:15:00,76.6,39.1,29.95,North,3,8.0,15.0,26,0.00,,,0.08,Weather View 32 v70,2013-12-27 23:15:00,
2013-12-27 13:20:00,76.5,38.9,29.95,North,2,5.0,15.0,26,0.00,,,0.08,Weather View 32 v70,2013-12-27 23:20:00,
2013-12-27 13:25:00,76.5,40.8,29.95,North,7,6.0,15.0,28,0.00,,,0.08,Weather View 32 v70,2013-12-27 23:25:00,
2013-12-27 13:30:00,76.5,40.8,29.95,NNE,12,5.0,13.0,28,0.00,,,0.08,Weather View 32 v70,2013-12-27 23:30:00,
2013-12-27 13:35:00,76.5,43.5,29.95,NE,37,6.0,13.0,31,0.00,,,0.08,Weather View 32 v70,2013-12-27 23:35:00,
2013-12-27 13:40:00,76.3,43.3,29.95,North,4,4.0,13.0,31,0.00,,,0.08,Weather View 32 v70,2013-12-27 23:40:00,
2013-12-27 13:45:00,76.3,43.3,29.95,North,353,6.0,13.0,31,0.00,,,0.08,Weather View 32 v70,2013-12-27 23:45:00,
2013-12-27 13:50:00,76.1,43.2,29.95,North,7,6.0,13.0,31,0.00,,,0.08,Weather View 32 v70,2013-12-27 23:50:00,
2013-12-27 13:55:00,76.1,43.2,29.95,NNE,24,8.0,13.0,31,0.00,,,0.08,Weather View 32 v70,2013-12-27 23:55:00,
2013-12-27 14:00:00,75.9,43.0,29.92,NNE,29,8.0,13.0,31,0.00,,,0.08,Weather View 32 v70,2013-12-28 00:00:00,
2013-12-27 14:05:00,75.9,43.0,29.92,NE,34,11.0,13.0,31,0.00,,,0.08,Weather View 32 v70,2013-12-28 00:05:00,
2013-12-27 14:10:00,75.7,42.9,29.92,North,3,6.0,13.0,31,0.00,,,0.08,Weather View 32 v70,2013-12-28 00:10:00,
2013-12-27 14:15:00,75.7,42.9,29.92,North,3,6.0,13.0,31,0.00,,,0.08,Weather View 32 v70,2013-12-28 00:15:00,
2013-12-27 14:20:00,75.6,42.7,29.92,NE,51,6.0,13.0,31,0.00,,,0.08,Weather View 32 v70,2013-12-28 00:20:00,
2013-12-27 14:25:00,75.6,42.7,29.92,North,6,8.0,13.0,31,0.00,,,0.08,Weather View 32 v70,2013-12-28 00:25:00,
2013-12-27 14:30:00,75.6,43.5,29.92,ENE,78,9.0,13.0,32,0.00,,,0.08,Weather View 32 v70,2013-12-28 00:30:00,
2013-12-27 14:35:00,75.6,43.5,29.92,NNE,28,12.0,13.0,32,0.00,,,0.08,Weather View 32 v70,2013-12-28 00:35:00,
2013-12-27 14:40:00,75.6,43.5,29.92,North,4,9.0,13.0,32,0.00,,,0.08,Weather View 32 v70,2013-12-28 00:40:00,
2013-12-27 14:45:00,75.4,43.4,29.92,North,2,4.0,13.0,32,0.00,,,0.08,Weather View 32 v70,2013-12-28 00:45:00,
2013-12-27 14:50:00,75.6,43.5,29.92,North,5,8.0,13.0,32,0.00,,,0.08,Weather View 32 v70,2013-12-28 00:50:00,
2013-12-27 14:55:00,75.6,43.5,29.92,North,6,8.0,13.0,32,0.00,,,0.08,Weather View 32 v70,2013-12-28 00:55:00,
2013-12-27 15:00:00,75.4,44.2,29.92,SE,127,6.0,13.0,33,0.00,,,0.08,Weather View 32 v70,2013-12-28 01:00:00,
2013-12-27 15:05:00,75.4,44.2,29.92,East,89,6.0,13.0,33,0.00,,,0.08,Weather View 32 v70,2013-12-28 01:05:00,
2013-12-27 15:06:00,75.4,44.2,29.92,NE,55,8.0,13.0,33,0.00,,,0.08,Weather View 32 v70,2013-12-28 01:06:00,
2013-12-27 15:11:00,75.4,44.2,29.92,NNE,16,4.0,13.0,33,0.00,,,0.08,Weather View 32 v70,2013-12-28 01:11:00,
2013-12-27 15:16:00,75.2,44.0,29.92,North,9,4.0,13.0,33,0.00,,,0.08,Weather View 32 v70,2013-12-28 01:16:00,
2013-12-27 15:21:00,75.2,43.2,29.92,NNE,25,5.0,13.0,32,0.00,,,0.08,Weather View 32 v70,2013-12-28 01:21:00,
2013-12-27 15:26:00,75.2,43.2,29.92,NNE,19,8.0,13.0,32,0.00,,,0.08,Weather View 32 v70,2013-12-28 01:26:00,
2013-12-27 15:31:00,75.2,44.8,29.92,ESE,107,3.0,12.0,34,0.00,,,0.08,Weather View 32 v70,2013-12-28 01:31:00,
2013-12-27 15:36:00,75.0,43.9,29.92,NNE,20,8.0,12.0,33,0.00,,,0.08,Weather View 32 v70,2013-12-28 01:36:00,
2013-12-27 15:41:00,75.0,43.9,29.92,North,7,8.0,11.0,33,0.00,,,0.08,Weather View 32 v70,2013-12-28 01:41:00,
2013-12-27 15:46:00,75.0,44.7,29.92,NE,39,11.0,11.0,34,0.00,,,0.08,Weather View 32 v70,2013-12-28 01:46:00,
2013-12-27 15:50:00,74.8,44.5,29.92,ESE,107,6.0,11.0,34,0.00,,,0.08,Weather View 32 v70,2013-12-28 01:50:00,
2013-12-27 15:56:00,74.8,44.5,29.92,North,5,5.0,13.0,34,0.00,,,0.08,Weather View 32 v70,2013-12-28 01:56:00,
2013-12-27 16:00:00,74.7,44.4,29.95,NE,38,5.0,13.0,34,0.00,,,0.08,Weather View 32 v70,2013-12-28 02:00:00,
2013-12-27 16:05:00,74.7,44.4,29.95,North,3,5.0,13.0,34,0.00,,,0.08,Weather View 32 v70,2013-12-28 02:05:00,
2013-12-27 16:10:00,74.5,44.2,29.95,NNE,27,6.0,13.0,34,0.00,,,0.08,Weather View 32 v70,2013-12-28 02:10:00,
2013-12-27 16:15:00,74.5,44.2,29.95,NE,44,5.0,13.0,34,0.00,,,0.08,Weather View 32 v70,2013-12-28 02:15:00,
2013-12-27 16:20:00,74.5,45.7,29.95,NE,40,6.0,13.0,36,0.00,,,0.08,Weather View 32 v70,2013-12-28 02:20:00,
2013-12-27 16:25:00,74.5,44.2,29.95,ENE,68,6.0,13.0,34,0.00,,,0.08,Weather View 32 v70,2013-12-28 02:25:00,
2013-12-27 16:30:00,74.3,44.0,29.95,North,6,5.0,13.0,34,0.00,,,0.08,Weather View 32 v70,2013-12-28 02:30:00,
2013-12-27 16:35:00,74.3,44.0,29.95,North,8,8.0,13.0,34,0.00,,,0.08,Weather View 32 v70,2013-12-28 02:35:00,
2013-12-27 16:40:00,73.9,44.5,29.95,NNE,25,8.0,15.0,35,0.00,,,0.08,Weather View 32 v70,2013-12-28 02:40:00,
2013-12-27 16:45:00,73.8,44.3,29.95,North,4,8.0,15.0,35,0.00,,,0.08,Weather View 32 v70,2013-12-28 02:45:00,
2013-12-27 16:50:00,73.6,44.2,29.95,North,6,4.0,15.0,35,0.00,,,0.08,Weather View 32 v70,2013-12-28 02:50:00,
2013-12-27 16:55:00,73.2,43.8,29.95,East,82,6.0,15.0,35,0.00,,,0.08,Weather View 32 v70,2013-12-28 02:55:00,
2013-12-27 17:00:00,73.2,44.6,29.95,North,6,11.0,15.0,36,0.00,,,0.08,Weather View 32 v70,2013-12-28 03:00:00,
2013-12-27 17:05:00,73.2,44.6,29.95,ESE,112,8.0,15.0,36,0.00,,,0.08,Weather View 32 v70,2013-12-28 03:05:00,
2013-12-27 17:10:00,73.2,45.3,29.95,ENE,74,8.0,15.0,37,0.00,,,0.08,Weather View 32 v70,2013-12-28 03:10:00,
2013-12-27 17:15:00,73.2,45.3,29.95,NNE,23,6.0,15.0,37,0.00,,,0.08,Weather View 32 v70,2013-12-28 03:15:00,
2013-12-27 17:20:00,73.2,45.3,29.95,North,3,3.0,15.0,37,0.00,,,0.08,Weather View 32 v70,2013-12-28 03:20:00,
2013-12-27 17:25:00,73.0,45.2,29.95,NNE,19,3.0,15.0,37,0.00,,,0.08,Weather View 32 v70,2013-12-28 03:25:00,
2013-12-27 17:30:00,73.0,45.2,29.95,ENE,63,6.0,15.0,37,0.00,,,0.08,Weather View 32 v70,2013-12-28 03:30:00,
2013-12-27 17:35:00,73.0,45.9,29.95,North,1,3.0,15.0,38,0.00,,,0.08,Weather View 32 v70,2013-12-28 03:35:00,
2013-12-27 17:40:00,72.9,45.7,29.95,East,97,3.0,11.0,38,0.00,,,0.08,Weather View 32 v70,2013-12-28 03:40:00,
2013-12-27 17:45:00,72.7,46.2,29.95,North,3,3.0,11.0,39,0.00,,,0.08,Weather View 32 v70,2013-12-28 03:45:00,
2013-12-27 17:50:00,72.3,45.9,29.95,ENE,63,0.0,11.0,39,0.00,,,0.08,Weather View 32 v70,2013-12-28 03:50:00,
2013-12-27 17:55:00,72.0,46.3,29.95,ENE,75,4.0,11.0,40,0.00,,,0.08,Weather View 32 v70,2013-12-28 03:55:00,
2013-12-27 18:00:00,71.6,46.6,29.95,SE,127,3.0,11.0,41,0.00,,,0.08,Weather View 32 v70,2013-12-28 04:00:00,
2013-12-27 18:05:00,71.4,47.1,29.95,ESE,123,3.0,11.0,42,0.00,,,0.08,Weather View 32 v70,2013-12-28 04:05:00,
2013-12-27 18:10:00,71.1,46.7,29.95,SE,132,3.0,11.0,42,0.00,,,0.08,Weather View 32 v70,2013-12-28 04:10:00,
2013-12-27 18:15:00,70.9,47.2,29.95,SE,139,3.0,10.0,43,0.00,,,0.08,Weather View 32 v70,2013-12-28 04:15:00,
2013-12-27 18:20:00,70.7,47.7,29.95,SE,137,2.0,10.0,44,0.00,,,0.08,Weather View 32 v70,2013-12-28 04:20:00,
2013-12-27 18:25:00,70.3,47.3,29.95,ESE,117,2.0,10.0,44,0.00,,,0.08,Weather View 32 v70,2013-12-28 04:25:00,
2013-12-27 18:30:00,70.2,47.2,29.98,ESE,117,0.0,10.0,44,0.00,,,0.08,Weather View 32 v70,2013-12-28 04:30:00,
2013-12-27 18:35:00,69.8,47.4,29.98,ESE,117,0.0,8.0,45,0.00,,,0.08,Weather View 32 v70,2013-12-28 04:35:00,
2013-12-27 18:40:00,69.4,47.7,29.98,ESE,117,3.0,6.0,46,0.00,,,0.08,Weather View 32 v70,2013-12-28 04:40:00,
2013-12-27 18:45:00,69.3,48.1,29.98,ESE,117,0.0,5.0,47,0.00,,,0.08,Weather View 32 v70,2013-12-28 04:45:00,
2013-12-27 18:50:00,69.1,47.9,29.98,ESE,117,0.0,5.0,47,0.00,,,0.08,Weather View 32 v70,2013-12-28 04:50:00,
2013-12-27 18:55:00,69.1,48.5,29.98,ESE,117,0.0,5.0,48,0.00,,,0.08,Weather View 32 v70,2013-12-28 04:55:00,
2013-12-27 19:00:00,68.9,48.3,29.98,ESE,117,3.0,5.0,48,0.00,,,0.08,Weather View 32 v70,2013-12-28 05:00:00,
2013-12-27 19:01:00,68.9,48.9,29.98,ESE,117,2.0,5.0,49,0.00,,,0.08,Weather View 32 v70,2013-12-28 05:01:00,
2013-12-27 19:02:00,69.1,49.1,29.98,ESE,117,0.0,5.0,49,0.00,,,0.08,Weather View 32 v70,2013-12-28 05:02:00,
2013-12-27 19:07:00,69.1,49.1,29.98,ESE,117,2.0,5.0,49,0.00,,,0.08,Weather View 32 v70,2013-12-28 05:07:00,
2013-12-27 19:12:00,69.1,49.1,29.98,ESE,117,0.0,5.0,49,0.00,,,0.08,Weather View 32 v70,2013-12-28 05:12:00,
2013-12-27 19:17:00,69.1,49.1,29.98,ESE,117,0.0,5.0,49,0.00,,,0.08,Weather View 32 v70,2013-12-28 05:17:00,
2013-12-27 19:22:00,69.1,49.6,29.98,ESE,117,3.0,5.0,50,0.00,,,0.08,Weather View 32 v70,2013-12-28 05:22:00,
2013-12-27 19:27:00,69.1,49.6,30.00,ESE,117,0.0,4.0,50,0.00,,,0.08,Weather View 32 v70,2013-12-28 05:27:00,
2013-12-27 19:32:00,69.3,49.8,30.00,ESE,117,0.0,4.0,50,0.00,,,0.08,Weather View 32 v70,2013-12-28 05:32:00,
2013-12-27 19:37:00,69.4,49.9,30.00,ESE,117,0.0,4.0,50,0.00,,,0.08,Weather View 32 v70,2013-12-28 05:37:00,
2013-12-27 19:42:00,69.6,50.1,30.00,NNE,30,2.0,4.0,50,0.00,,,0.08,Weather View 32 v70,2013-12-28 05:42:00,
2013-12-27 19:47:00,69.6,50.1,30.00,ESE,123,3.0,4.0,50,0.00,,,0.08,Weather View 32 v70,2013-12-28 05:47:00,
2013-12-27 19:52:00,70.0,49.9,30.00,ESE,123,0.0,4.0,49,0.00,,,0.08,Weather View 32 v70,2013-12-28 05:52:00,
2013-12-27 19:57:00,70.2,49.5,30.00,ESE,123,0.0,4.0,48,0.00,,,0.08,Weather View 32 v70,2013-12-28 05:57:00,
2013-12-27 20:02:00,70.2,49.5,30.00,ESE,122,3.0,4.0,48,0.00,,,0.08,Weather View 32 v70,2013-12-28 06:02:00,
2013-12-27 20:07:00,70.2,48.9,30.00,ESE,122,0.0,4.0,47,0.00,,,0.08,Weather View 32 v70,2013-12-28 06:07:00,
2013-12-27 20:12:00,70.2,48.9,30.00,ESE,122,0.0,4.0,47,0.00,,,0.08,Weather View 32 v70,2013-12-28 06:12:00,
2013-12-27 20:17:00,70.3,49.1,30.00,ESE,122,0.0,4.0,47,0.00,,,0.08,Weather View 32 v70,2013-12-28 06:17:00,
2013-12-27 20:22:00,70.3,49.7,30.00,East,88,5.0,6.0,48,0.00,,,0.08,Weather View 32 v70,2013-12-28 06:22:00,
2013-12-27 20:27:00,70.5,49.3,30.00,North,357,4.0,6.0,47,0.00,,,0.08,Weather View 32 v70,2013-12-28 06:27:00,
2013-12-27 20:32:00,70.9,49.6,30.00,SSW,209,3.0,6.0,47,0.00,,,0.08,Weather View 32 v70,2013-12-28 06:32:00,
2013-12-27 20:37:00,71.1,49.8,30.00,ENE,68,0.0,6.0,47,0.00,,,0.08,Weather View 32 v70,2013-12-28 06:37:00,
2013-12-27 20:42:00,71.4,49.5,30.00,ENE,70,3.0,6.0,46,0.00,,,0.08,Weather View 32 v70,2013-12-28 06:42:00,
2013-12-27 20:47:00,72.0,50.0,30.00,North,2,3.0,8.0,46,0.00,,,0.08,Weather View 32 v70,2013-12-28 06:47:00,
2013-12-27 20:52:00,72.3,50.3,30.00,NNW,344,2.0,8.0,46,0.00,,,0.08,Weather View 32 v70,2013-12-28 06:52:00,
2013-12-27 20:57:00,72.5,49.9,30.03,North,357,5.0,8.0,45,0.00,,,0.08,Weather View 32 v70,2013-12-28 06:57:00,
2013-12-27 21:02:00,72.7,49.4,30.03,North,5,3.0,8.0,44,0.00,,,0.08,Weather View 32 v70,2013-12-28 07:02:00,
2013-12-27 21:07:00,72.7,48.8,30.03,North,353,3.0,12.0,43,0.00,,,0.08,Weather View 32 v70,2013-12-28 07:07:00,
2013-12-27 21:12:00,72.7,48.8,30.03,North,353,6.0,12.0,43,0.00,,,0.08,Weather View 32 v70,2013-12-28 07:12:00,
2013-12-27 21:17:00,72.9,49.6,30.03,NE,46,4.0,12.0,44,0.00,,,0.08,Weather View 32 v70,2013-12-28 07:17:00,
2013-12-27 21:22:00,72.9,49.6,30.03,East,86,3.0,12.0,44,0.00,,,0.08,Weather View 32 v70,2013-12-28 07:22:00,
2013-12-27 21:27:00,73.0,49.2,30.03,NNW,345,5.0,13.0,43,0.00,,,0.08,Weather View 32 v70,2013-12-28 07:27:00,
2013-12-27 21:32:00,72.9,49.0,30.03,NNE,25,5.0,13.0,43,0.00,,,0.08,Weather View 32 v70,2013-12-28 07:32:00,
2013-12-27 21:37:00,72.9,49.6,30.03,NNE,31,6.0,13.0,44,0.00,,,0.08,Weather View 32 v70,2013-12-28 07:37:00,
2013-12-27 21:42:00,72.7,48.8,30.03,North,11,9.0,13.0,43,0.00,,,0.08,Weather View 32 v70,2013-12-28 07:42:00,
2013-12-27 21:47:00,73.0,49.8,30.03,NE,34,6.0,13.0,44,0.00,,,0.08,Weather View 32 v70,2013-12-28 07:47:00,
2013-12-27 21:52:00,72.7,48.8,30.03,NNE,23,6.0,13.0,43,0.00,,,0.08,Weather View 32 v70,2013-12-28 07:52:00,
2013-12-27 21:57:00,72.3,48.5,30.03,ENE,69,4.0,13.0,43,0.00,,,0.08,Weather View 32 v70,2013-12-28 07:57:00,
2013-12-27 22:02:00,72.3,50.3,30.03,North,5,9.0,13.0,46,0.00,,,0.08,Weather View 32 v70,2013-12-28 08:02:00,
2013-12-27 22:07:00,72.1,50.2,30.03,NNE,28,11.0,13.0,46,0.00,,,0.08,Weather View 32 v70,2013-12-28 08:07:00,
2013-12-27 22:12:00,72.0,50.0,30.03,ESE,113,3.0,13.0,46,0.00,,,0.08,Weather View 32 v70,2013-12-28 08:12:00,
2013-12-27 22:17:00,72.0,49.4,30.03,ENE,72,0.0,13.0,45,0.00,,,0.08,Weather View 32 v70,2013-12-28 08:17:00,
2013-12-27 22:22:00,72.0,50.6,30.03,ENE,68,4.0,13.0,47,0.00,,,0.08,Weather View 32 v70,2013-12-28 08:22:00,
2013-12-27 22:27:00,72.0,51.1,30.03,East,82,0.0,13.0,48,0.00,,,0.08,Weather View 32 v70,2013-12-28 08:27:00,
2013-12-27 22:32:00,72.0,51.7,30.03,East,83,3.0,13.0,49,0.00,,,0.08,Weather View 32 v70,2013-12-28 08:32:00,
2013-12-27 22:37:00,72.0,51.7,30.03,SE,146,5.0,13.0,49,0.00,,,0.08,Weather View 32 v70,2013-12-28 08:37:00,
2013-12-27 22:42:00,72.1,51.9,30.03,SE,143,3.0,13.0,49,0.00,,,0.08,Weather View 32 v70,2013-12-28 08:42:00,
2013-12-27 22:47:00,72.3,50.9,30.03,NNE,28,8.0,13.0,47,0.00,,,0.08,Weather View 32 v70,2013-12-28 08:47:00,
2013-12-27 22:52:00,72.5,51.6,30.03,North,3,4.0,13.0,48,0.00,,,0.08,Weather View 32 v70,2013-12-28 08:52:00,
2013-12-27 22:57:00,72.3,51.5,30.03,North,5,6.0,13.0,48,0.00,,,0.08,Weather View 32 v70,2013-12-28 08:57:00,
2013-12-27 23:02:00,72.3,50.9,30.03,NE,43,2.0,13.0,47,0.00,,,0.08,Weather View 32 v70,2013-12-28 09:02:00,
2013-12-27 23:07:00,72.3,50.9,30.03,NNE,24,3.0,11.0,47,0.00,,,0.08,Weather View 32 v70,2013-12-28 09:07:00,
2013-12-27 23:12:00,72.1,51.3,30.03,ENE,62,3.0,11.0,48,0.00,,,0.08,Weather View 32 v70,2013-12-28 09:12:00,
2013-12-27 23:17:00,72.1,51.3,30.03,NNE,31,3.0,11.0,48,0.00,,,0.08,Weather View 32 v70,2013-12-28 09:17:00,
2013-12-27 23:22:00,72.0,50.6,30.03,ENE,69,3.0,11.0,47,0.00,,,0.08,Weather View 32 v70,2013-12-28 09:22:00,
2013-12-27 23:27:00,72.0,50.6,30.03,East,89,5.0,11.0,47,0.00,,,0.08,Weather View 32 v70,2013-12-28 09:27:00,
2013-12-27 23:32:00,72.0,51.1,30.03,ESE,110,8.0,11.0,48,0.00,,,0.08,Weather View 32 v70,2013-12-28 09:32:00,
2013-12-27 23:37:00,72.1,50.2,30.03,North,5,10.0,12.0,46,0.00,,,0.08,Weather View 32 v70,2013-12-28 09:37:00,
2013-12-27 23:42:00,72.3,50.3,30.00,NE,47,8.0,12.0,46,0.00,,,0.08,Weather View 32 v70,2013-12-28 09:42:00,
2013-12-27 23:47:00,72.3,50.3,30.00,North,7,12.0,13.0,46,0.00,,,0.08,Weather View 32 v70,2013-12-28 09:47:00,
2013-12-27 23:52:00,72.3,48.5,30.00,North,9,9.0,13.0,43,0.00,,,0.08,Weather View 32 v70,2013-12-28 09:52:00,
2013-12-27 23:57:00,72.5,48.7,30.00,ENE,63,6.0,13.0,43,0.00,,,0.08,Weather View 32 v70,2013-12-28 09:57:00,